createdAt,value
2023-01-09T00:00:44.787Z,6.46
2023-01-09T00:05:46.417Z,6.48
2023-01-09T00:10:49.689Z,6.49
2023-01-09T00:15:51.476Z,6.50
2023-01-09T00:20:52.982Z,6.49
2023-01-09T00:26:12.620Z,6.56
2023-01-09T00:31:14.933Z,6.49
2023-01-09T00:36:16.507Z,6.45
2023-01-09T00:41:25.362Z,6.33
2023-01-09T00:46:33.291Z,6.28
2023-01-09T00:51:34.924Z,6.26
2023-01-09T00:56:37.060Z,6.18
2023-01-09T01:01:38.617Z,6.06
2023-01-09T01:06:58.541Z,5.99
2023-01-09T01:12:01.501Z,5.92
2023-01-09T01:17:04.045Z,5.83
2023-01-09T01:22:05.559Z,5.85
2023-01-09T01:27:07.070Z,5.79
2023-01-09T01:32:08.729Z,5.74
2023-01-09T01:37:10.390Z,5.63
2023-01-09T01:42:13.754Z,5.57
2023-01-09T01:47:17.549Z,5.53
2023-01-09T01:52:20.097Z,5.49
2023-01-09T01:57:22.097Z,5.45
2023-01-09T02:02:27.990Z,5.34
2023-01-09T02:07:30.148Z,5.32
2023-01-09T02:12:31.664Z,5.32
2023-01-09T02:17:54.297Z,5.33
2023-01-09T02:22:55.710Z,5.30
2023-01-09T02:28:36.288Z,5.34
2023-01-09T02:33:53.841Z,5.44
2023-01-09T02:39:26.240Z,5.51
2023-01-09T02:44:30.185Z,5.50
2023-01-09T02:49:37.894Z,5.43
2023-01-09T02:55:10.266Z,5.32
2023-01-09T03:00:33.868Z,5.29
2023-01-09T03:05:43.966Z,5.25
2023-01-09T03:10:58.355Z,5.25
2023-01-09T03:16:06.226Z,5.15
2023-01-09T03:21:11.140Z,5.13
2023-01-09T03:26:12.692Z,5.15
2023-01-09T03:31:14.863Z,5.16
2023-01-09T03:36:18.509Z,5.24
2023-01-09T03:41:20.333Z,5.25
2023-01-09T03:46:21.901Z,5.27
2023-01-09T03:51:23.379Z,5.33
2023-01-09T03:56:25.597Z,5.37
2023-01-09T04:01:27.259Z,5.36
2023-01-09T04:06:28.868Z,5.32
2023-01-09T04:11:30.386Z,5.26
2023-01-09T04:16:31.944Z,5.25
2023-01-09T04:21:33.628Z,5.25
2023-01-09T04:26:35.136Z,5.22
2023-01-09T04:31:36.630Z,5.16
2023-01-09T04:36:38.729Z,5.15
2023-01-09T04:41:49.200Z,5.15
2023-01-09T04:46:50.731Z,5.16
2023-01-09T04:51:52.340Z,5.06
2023-01-09T04:56:53.817Z,4.95
2023-01-09T05:01:56.301Z,4.93
2023-01-09T05:06:57.834Z,4.91
2023-01-09T05:12:01.650Z,5.01
2023-01-09T05:17:03.321Z,5.01
2023-01-09T05:22:05.061Z,4.85
2023-01-09T05:27:07.011Z,4.85
2023-01-09T05:32:08.530Z,4.93
2023-01-09T05:37:10.041Z,5.03
2023-01-09T05:42:11.569Z,4.98
2023-01-09T05:47:13.053Z,4.80
2023-01-09T05:52:14.838Z,4.95
2023-01-09T05:57:17.153Z,5.08
2023-01-09T06:02:18.835Z,5.14
2023-01-09T06:07:23.278Z,5.25
2023-01-09T06:12:24.938Z,5.24
2023-01-09T06:17:26.459Z,5.26
2023-01-09T06:22:27.993Z,5.26
2023-01-09T06:27:29.499Z,5.30
2023-01-09T06:32:31.015Z,5.35
2023-01-09T06:37:33.325Z,5.37
2023-01-09T06:42:34.864Z,5.33
2023-01-09T06:47:36.353Z,5.34
2023-01-09T06:52:38.340Z,5.41
2023-01-09T06:57:40.392Z,5.41
2023-01-09T07:02:41.918Z,5.44
2023-01-09T07:07:43.415Z,5.39
2023-01-09T07:12:44.944Z,5.36
2023-01-09T07:17:46.446Z,5.41
2023-01-09T07:22:48.029Z,5.35
2023-01-09T07:27:49.506Z,5.26
2023-01-09T07:32:51.047Z,5.22
2023-01-09T07:37:52.563Z,5.26
2023-01-09T07:42:54.084Z,5.23
2023-01-09T07:47:56.178Z,5.20
2023-01-09T07:52:57.731Z,5.20
2023-01-09T07:57:59.229Z,5.29
2023-01-09T08:03:00.743Z,5.37
2023-01-09T08:08:02.421Z,5.41
2023-01-09T08:13:03.966Z,5.37
2023-01-09T08:18:05.519Z,5.43
2023-01-09T08:23:07.101Z,5.49
2023-01-09T08:28:09.355Z,5.54
2023-01-09T08:33:11.279Z,5.64
2023-01-09T08:38:13.180Z,5.68
2023-01-09T08:43:33.191Z,5.70
2023-01-09T08:48:34.699Z,5.70
2023-01-09T08:53:36.283Z,5.79
2023-01-09T08:58:37.784Z,5.89
2023-01-09T09:03:39.255Z,5.99
2023-01-09T09:08:41.281Z,6.11
2023-01-09T09:13:42.839Z,6.19
2023-01-09T09:18:44.377Z,6.22
2023-01-09T09:23:46.161Z,6.23
2023-01-09T09:28:47.645Z,6.28
2023-01-09T09:33:49.176Z,6.34
2023-01-09T09:38:50.762Z,6.40
2023-01-09T09:44:53.865Z,6.37
2023-01-09T09:50:37.164Z,6.33
2023-01-09T09:55:40.820Z,6.30
2023-01-09T10:00:42.539Z,6.34
2023-01-09T10:05:46.306Z,6.38
2023-01-09T10:10:54.584Z,6.36
2023-01-09T10:16:03.731Z,6.33
2023-01-09T10:21:22.006Z,6.31
2023-01-09T10:26:37.661Z,6.31
2023-01-09T10:31:51.351Z,6.34
2023-01-09T10:37:05.613Z,6.32
2023-01-09T10:42:31.824Z,6.38
2023-01-09T10:47:36.191Z,6.47
2023-01-09T10:52:42.020Z,6.51
2023-01-09T10:57:46.119Z,6.61
2023-01-09T11:02:48.614Z,6.74
2023-01-09T11:08:08.407Z,6.75
2023-01-09T11:13:31.763Z,6.83
2023-01-09T11:18:37.369Z,6.91
2023-01-09T11:23:38.908Z,7.05
2023-01-09T11:28:40.474Z,7.30
2023-01-09T11:34:02.000Z,7.41
2023-01-09T11:39:04.239Z,7.55
2023-01-09T11:44:05.831Z,7.67
2023-01-09T11:49:17.825Z,7.72
2023-01-09T11:54:25.290Z,7.62
2023-01-09T11:59:29.318Z,7.75
2023-01-09T12:04:47.735Z,7.66
2023-01-09T12:10:24.274Z,7.76
2023-01-09T12:15:32.154Z,7.76
2023-01-09T12:20:58.358Z,7.66
2023-01-09T12:26:29.234Z,7.68
2023-01-09T12:31:55.562Z,7.62
2023-01-09T12:37:18.549Z,7.59
2023-01-09T12:42:49.853Z,7.53
2023-01-09T12:47:53.374Z,7.69
2023-01-09T12:53:05.567Z,7.71
2023-01-09T12:58:29.631Z,7.54
2023-01-09T13:03:34.052Z,7.46
2023-01-09T13:08:42.794Z,7.50
2023-01-09T13:13:49.917Z,7.63
2023-01-09T13:18:59.246Z,7.53
2023-01-09T13:24:12.702Z,7.41
2023-01-09T13:29:26.783Z,7.43
2023-01-09T13:34:31.149Z,7.33
2023-01-09T13:39:38.079Z,7.29
2023-01-09T13:44:40.149Z,7.37
2023-01-09T13:49:41.688Z,7.38
2023-01-09T13:54:55.402Z,7.36
2023-01-09T14:00:15.360Z,7.39
2023-01-09T14:05:25.525Z,7.40
2023-01-09T14:10:30.180Z,7.45
2023-01-09T14:15:36.705Z,7.34
2023-01-09T14:20:42.168Z,7.33
2023-01-09T14:25:44.611Z,7.30
2023-01-09T14:30:52.142Z,7.29
2023-01-09T14:35:56.715Z,7.18
2023-01-09T14:41:45.889Z,7.10
2023-01-09T14:46:50.442Z,7.02
2023-01-09T14:51:53.598Z,6.93
2023-01-09T14:56:55.164Z,6.87
2023-01-09T15:01:59.276Z,6.81
2023-01-09T15:07:02.990Z,6.77
2023-01-09T15:12:08.936Z,6.79
2023-01-09T15:17:20.812Z,6.86
2023-01-09T15:22:24.070Z,6.86
2023-01-09T15:27:26.321Z,6.86
2023-01-09T15:32:29.841Z,6.92
2023-01-09T15:37:39.182Z,6.95
2023-01-09T15:42:57.450Z,6.89
2023-01-09T15:48:18.394Z,6.86
2023-01-09T15:53:22.683Z,6.78
2023-01-09T15:58:31.986Z,6.71
2023-01-09T16:03:37.373Z,6.72
2023-01-09T16:08:49.864Z,6.68
2023-01-09T16:13:52.394Z,6.59
2023-01-09T16:18:55.513Z,6.52
2023-01-09T16:24:03.871Z,6.55
2023-01-09T16:29:37.558Z,6.64
2023-01-09T16:34:42.425Z,6.59
2023-01-09T16:40:25.748Z,6.61
2023-01-09T16:45:30.327Z,6.59
2023-01-09T16:50:31.963Z,6.60
2023-01-09T16:55:33.449Z,6.51
2023-01-09T17:00:34.982Z,6.47
2023-01-09T17:05:36.477Z,6.41
2023-01-09T17:10:37.980Z,6.36
2023-01-09T17:15:39.566Z,6.33
2023-01-09T17:20:43.371Z,6.30
2023-01-09T17:26:03.666Z,6.23
2023-01-09T17:31:09.073Z,6.20
2023-01-09T17:36:27.062Z,6.22
2023-01-09T17:41:29.445Z,6.20
2023-01-09T17:46:33.424Z,6.14
2023-01-09T17:51:34.940Z,6.10
2023-01-09T17:56:40.001Z,5.94
2023-01-09T18:01:43.082Z,5.92
2023-01-09T18:06:44.699Z,5.76
2023-01-09T18:11:53.283Z,5.69
2023-01-09T18:16:54.910Z,5.62
2023-01-09T18:21:58.459Z,5.65
2023-01-09T18:27:00.254Z,5.62
2023-01-09T18:32:01.771Z,5.66
2023-01-09T18:37:03.324Z,5.68
2023-01-09T18:42:06.142Z,5.68
2023-01-09T18:47:07.732Z,5.77
2023-01-09T18:52:09.233Z,5.81
2023-01-09T18:57:10.788Z,5.81
2023-01-09T19:02:20.974Z,5.86
2023-01-09T19:07:22.635Z,5.86
2023-01-09T19:12:24.116Z,5.98
2023-01-09T19:17:25.608Z,6.06
2023-01-09T19:22:27.225Z,6.09
2023-01-09T19:27:30.480Z,6.02
2023-01-09T19:32:32.014Z,6.06
2023-01-09T19:37:34.956Z,6.13
2023-01-09T19:42:36.480Z,6.13
2023-01-09T19:47:38.050Z,6.10
2023-01-09T19:52:43.129Z,6.12
2023-01-09T19:57:45.199Z,6.16
2023-01-09T20:02:49.329Z,6.17
2023-01-09T20:07:55.087Z,6.18
2023-01-09T20:12:56.643Z,6.15
2023-01-09T20:17:58.203Z,6.18
2023-01-09T20:22:59.731Z,6.19
2023-01-09T20:28:01.297Z,6.14
2023-01-09T20:33:02.770Z,6.08
2023-01-09T20:38:04.378Z,6.10
2023-01-09T20:43:06.530Z,6.09
2023-01-09T20:48:09.123Z,6.16
2023-01-09T20:53:10.644Z,6.07
2023-01-09T20:58:12.173Z,6.10
2023-01-09T21:03:16.558Z,6.14
2023-01-09T21:08:18.083Z,6.12
2023-01-09T21:13:19.569Z,6.09
2023-01-09T21:18:21.112Z,6.03
2023-01-09T21:23:22.886Z,6.07
2023-01-09T21:28:25.184Z,6.07
2023-01-09T21:33:26.734Z,5.96
2023-01-09T21:38:28.404Z,5.88
2023-01-09T21:43:49.113Z,5.79
2023-01-09T21:48:50.688Z,5.62
2023-01-09T21:53:52.172Z,5.59
2023-01-09T21:58:53.640Z,5.55
2023-01-09T22:03:56.622Z,5.47
2023-01-09T22:08:58.183Z,5.41
2023-01-09T22:14:00.412Z,5.44
2023-01-09T22:19:02.171Z,5.59
2023-01-09T22:24:05.146Z,5.67
2023-01-09T22:29:06.693Z,5.67
2023-01-09T22:34:15.406Z,5.61
2023-01-09T22:39:19.052Z,5.53
2023-01-09T22:44:20.906Z,5.46
2023-01-09T22:49:22.366Z,5.32
2023-01-09T22:54:23.946Z,5.26
2023-01-09T22:59:27.184Z,5.31
2023-01-09T23:04:28.734Z,5.27
2023-01-09T23:09:30.231Z,5.15
2023-01-09T23:14:36.991Z,5.01
2023-01-09T23:19:40.304Z,5.03
2023-01-09T23:24:41.782Z,5.09
2023-01-09T23:29:43.254Z,5.20
2023-01-09T23:34:46.949Z,5.32
2023-01-09T23:39:48.505Z,5.44
2023-01-09T23:44:50.047Z,5.50
2023-01-09T23:49:51.648Z,5.56
2023-01-09T23:54:54.117Z,5.59
2023-01-09T23:59:55.596Z,5.58
